Dreamworld — MPGL2 — position and weather

sailwx.info

Track history (hours):
 
Tides and Currents Weather Stations Pressure Air Temp Water Temp Dewpoint Dewpoint Depression Visibility Wind Speed Wind Dir Waves Ship Positions

Dreamworld

Last reported at 2017-Sep-28 16:57 UTC. Time now 2017-Oct-20 12:37 UTC.
Position N 37°54' E 023°03'.
Warning: this ship's position is 21 days out of date.

Length 13 m.

Type: Pleasure craft. MMSI: 235014263.

Date/timePositionNaut miles runAvg speedWind from/ knotsBaromVisibWave heightAir tempDewpointWater temp
2017-Sep-28 16:57N 37°54' E 023°03'2 4.9
2017-Sep-28 16:30N 37°54' E 023°06'17 4.6
2017-Sep-28 12:57N 37°52' E 023°27'2 5.0
2017-Sep-28 12:30N 37°52' E 023°29'3 5.2
2017-Sep-28 12:00N 37°53' E 023°33'3 5.6
2017-Sep-28 11:30N 37°54' E 023°36'3 5.6
2017-Sep-28 11:00N 37°56' E 023°39'0 0.8
2017-Sep-28 10:26N 37°56' E 023°39'0 0.0
2017-Sep-28 09:59N 37°56' E 023°39'0 0.0
2017-Sep-28 09:29N 37°56' E 023°39'0 0.0
2017-Sep-28 08:59N 37°56' E 023°39'0 0.0
2017-Sep-28 08:23N 37°56' E 023°39'0 0.0
2017-Sep-28 07:50N 37°56' E 023°39'0 0.0
2017-Sep-28 07:29N 37°56' E 023°39'0 0.0
2017-Sep-28 06:59N 37°56' E 023°39'0 0.0
2017-Sep-28 06:30N 37°56' E 023°39'0 0.0
2017-Sep-26 07:19N 37°56' E 023°39'0 0.0
2017-Sep-26 06:58N 37°56' E 023°39'2 3.4
2017-Sep-26 06:29N 37°55' E 023°38'3 6.1
2017-Sep-26 06:00N 37°53' E 023°35'3 6.4
2017-Sep-26 05:30N 37°53' E 023°31'1 0.6
2017-Sep-26 03:16N 37°53' E 023°29'0 0.0
2017-Sep-25 17:16N 37°53' E 023°29'0 0.0
2017-Sep-25 16:55N 37°53' E 023°29'0 0.0
2017-Sep-25 16:28N 37°53' E 023°29'0 0.0
2017-Sep-25 15:58N 37°53' E 023°29'0 0.0
2017-Sep-25 13:13N 37°53' E 023°29'0 0.0
2017-Sep-25 12:58N 37°53' E 023°29'0 0.0
2017-Sep-25 12:28N 37°53' E 023°29'0 0.0
2017-Sep-25 11:55N 37°53' E 023°29'0 0.0
2017-Sep-25 11:22N 37°53' E 023°29'0 0.0
2017-Sep-25 04:22N 37°53' E 023°29'0 0.0
2017-Sep-24 18:34N 37°53' E 023°29'0 0.0
2017-Sep-24 18:16N 37°53' E 023°29'0 0.0
2017-Sep-24 17:58N 37°53' E 023°29'0 0.0
2017-Sep-24 17:28N 37°53' E 023°29'0 0.0
2017-Sep-24 14:40N 37°53' E 023°29'0 0.0
2017-Sep-24 14:25N 37°53' E 023°29'0 0.0
2017-Sep-24 13:01N 37°53' E 023°29'0 0.0
2017-Sep-24 12:40N 37°53' E 023°29'0 0.0
2017-Sep-24 12:28N 37°53' E 023°29'0 0.0
2017-Sep-24 11:58N 37°53' E 023°29'2 2.8
2017-Sep-24 11:17N 37°52' E 023°31'1 4.5
2017-Sep-24 11:00N 37°51' E 023°31'  
2017-Sep-19 09:33N 37°31' E 024°44'1 6.4
2017-Sep-19 09:28N 37°31' E 024°45'  
Track history (hours):
 
Tides and Currents Weather Stations Pressure Air Temp Water Temp Dewpoint Dewpoint Depression Visibility Wind Speed Wind Dir Waves Ship Positions

Dreamworld

Last reported at 2017-Sep-28 16:57 UTC. Time now 2017-Oct-20 12:37 UTC.
Position N 37°54' E 023°03'.
Warning: this ship's position is 21 days out of date.

Length 13 m.

Type: Pleasure craft. MMSI: 235014263.

Date/timePositionNaut miles runAvg speedWind from/ knotsBaromVisibWave heightAir tempDewpointWater temp
2017-Sep-28 16:57N 37°54' E 023°03'2 4.9
2017-Sep-28 16:30N 37°54' E 023°06'17 4.6
2017-Sep-28 12:57N 37°52' E 023°27'2 5.0
2017-Sep-28 12:30N 37°52' E 023°29'3 5.2
2017-Sep-28 12:00N 37°53' E 023°33'3 5.6
2017-Sep-28 11:30N 37°54' E 023°36'3 5.6
2017-Sep-28 11:00N 37°56' E 023°39'0 0.8
2017-Sep-28 10:26N 37°56' E 023°39'0 0.0
2017-Sep-28 09:59N 37°56' E 023°39'0 0.0
2017-Sep-28 09:29N 37°56' E 023°39'0 0.0
2017-Sep-28 08:59N 37°56' E 023°39'0 0.0
2017-Sep-28 08:23N 37°56' E 023°39'0 0.0
2017-Sep-28 07:50N 37°56' E 023°39'0 0.0
2017-Sep-28 07:29N 37°56' E 023°39'0 0.0
2017-Sep-28 06:59N 37°56' E 023°39'0 0.0
2017-Sep-28 06:30N 37°56' E 023°39'0 0.0
2017-Sep-26 07:19N 37°56' E 023°39'0 0.0
2017-Sep-26 06:58N 37°56' E 023°39'2 3.4
2017-Sep-26 06:29N 37°55' E 023°38'3 6.1
2017-Sep-26 06:00N 37°53' E 023°35'3 6.4
2017-Sep-26 05:30N 37°53' E 023°31'1 0.6
2017-Sep-26 03:16N 37°53' E 023°29'0 0.0
2017-Sep-25 17:16N 37°53' E 023°29'0 0.0
2017-Sep-25 16:55N 37°53' E 023°29'0 0.0
2017-Sep-25 16:28N 37°53' E 023°29'0 0.0
2017-Sep-25 15:58N 37°53' E 023°29'0 0.0
2017-Sep-25 13:13N 37°53' E 023°29'0 0.0
2017-Sep-25 12:58N 37°53' E 023°29'0 0.0
2017-Sep-25 12:28N 37°53' E 023°29'0 0.0
2017-Sep-25 11:55N 37°53' E 023°29'0 0.0
2017-Sep-25 11:22N 37°53' E 023°29'0 0.0
2017-Sep-25 04:22N 37°53' E 023°29'0 0.0
2017-Sep-24 18:34N 37°53' E 023°29'0 0.0
2017-Sep-24 18:16N 37°53' E 023°29'0 0.0
2017-Sep-24 17:58N 37°53' E 023°29'0 0.0
2017-Sep-24 17:28N 37°53' E 023°29'0 0.0
2017-Sep-24 14:40N 37°53' E 023°29'0 0.0
2017-Sep-24 14:25N 37°53' E 023°29'0 0.0
2017-Sep-24 13:01N 37°53' E 023°29'0 0.0
2017-Sep-24 12:40N 37°53' E 023°29'0 0.0
2017-Sep-24 12:28N 37°53' E 023°29'0 0.0
2017-Sep-24 11:58N 37°53' E 023°29'2 2.8
2017-Sep-24 11:17N 37°52' E 023°31'1 4.5
2017-Sep-24 11:00N 37°51' E 023°31'  
2017-Sep-19 09:33N 37°31' E 024°44'1 6.4
2017-Sep-19 09:28N 37°31' E 024°45'  

Dump ship's entire track history